Time;durP1;ratioP1;P1;durP2;ratioP2;P2;SDS_P1;SDS_P2;PMS_P1;PMS_P2;Temp;Humidity;BMP_temperature;BMP_pressure;BME280_temperature;BME280_humidity;BME280_pressure;Samples;Min_cycle;Max_cycle;Signal;HPM_P1;HPM_P2
2021/06/27 00:00:37;;;;;;;10.52;8.35;;;20.70;91.80;;;;;;5092661;28;20016;-84
2021/06/27 00:03:03;;;;;;;10.35;8.25;;;20.60;92.10;;;;;;5095382;28;20114;-85
2021/06/27 00:05:30;;;;;;;10.15;8.07;;;20.70;91.80;;;;;;5096238;28;20026;-85
2021/06/27 00:07:59;;;;;;;12.15;8.98;;;20.60;92.10;;;;;;5097961;28;20066;-85
2021/06/27 00:10:34;;;;;;;10.25;7.88;;;20.60;91.80;;;;;;5096586;28;20028;-85
2021/06/27 00:13:00;;;;;;;12.70;8.40;;;20.60;91.90;;;;;;5098165;28;20059;-85
2021/06/27 00:15:41;;;;;;;8.68;7.47;;;20.60;91.90;;;;;;5097190;28;20028;-85
2021/06/27 00:18:08;;;;;;;9.98;8.30;;;20.60;91.90;;;;;;5095905;28;20495;-85
2021/06/27 00:20:36;;;;;;;9.10;7.90;;;20.60;91.90;;;;;;5095018;28;20070;-84
2021/06/27 00:23:03;;;;;;;10.10;7.85;;;20.60;92.00;;;;;;5094258;28;20092;-85
2021/06/27 00:25:30;;;;;;;11.30;8.70;;;20.50;92.00;;;;;;5094160;28;20024;-85
2021/06/27 00:27:57;;;;;;;10.15;7.80;;;20.60;92.10;;;;;;5094138;28;20070;-85
2021/06/27 00:30:24;;;;;;;10.27;8.20;;;20.50;92.10;;;;;;5094050;28;20028;-84
2021/06/27 00:32:50;;;;;;;10.13;8.35;;;20.50;92.10;;;;;;5093942;28;20393;-85
2021/06/27 00:35:17;;;;;;;10.55;8.30;;;20.50;92.20;;;;;;5093844;28;20031;-84
2021/06/27 00:37:44;;;;;;;9.60;7.60;;;20.50;92.20;;;;;;5093979;28;20449;-84
2021/06/27 00:40:13;;;;;;;9.93;7.80;;;20.50;92.20;;;;;;5093903;28;20089;-84
2021/06/27 00:42:39;;;;;;;9.35;8.02;;;20.50;92.30;;;;;;5095242;28;20020;-85
2021/06/27 00:45:08;;;;;;;11.95;8.73;;;20.50;92.60;;;;;;5093686;28;20089;-85
2021/06/27 00:47:34;;;;;;;;;;;20.40;92.40;;;;;;5095296;28;20036;-85
2021/06/27 00:50:01;;;;;;;10.18;8.40;;;20.40;92.40;;;;;;5094731;28;19927;-85
2021/06/27 00:52:27;;;;;;;11.73;9.43;;;20.40;92.50;;;;;;5093747;28;20020;-85
2021/06/27 00:54:53;;;;;;;10.52;8.27;;;20.40;92.50;;;;;;5093637;28;20610;-84
2021/06/27 00:57:19;;;;;;;11.23;9.18;;;20.40;92.60;;;;;;5093384;28;20035;-85
2021/06/27 00:59:45;;;;;;;10.88;8.57;;;20.40;92.60;;;;;;5093302;28;20020;-85
2021/06/27 01:02:14;;;;;;;13.38;10.20;;;20.40;92.70;;;;;;5093665;28;20031;-85
2021/06/27 01:04:41;;;;;;;11.05;9.00;;;20.30;92.70;;;;;;5093296;28;20028;-85
2021/06/27 01:07:07;;;;;;;12.40;9.40;;;20.30;92.70;;;;;;5094535;28;20427;-85
2021/06/27 01:09:39;;;;;;;12.25;9.38;;;20.30;92.80;;;;;;5093101;28;20020;-87
2021/06/27 01:12:09;;;;;;;12.85;9.45;;;20.30;92.90;;;;;;5092428;28;20028;-85
2021/06/27 01:14:34;;;;;;;10.32;8.90;;;20.20;93.00;;;;;;5093187;28;20114;-85
2021/06/27 01:17:15;;;;;;;12.23;9.63;;;20.20;93.00;;;;;;5093079;28;20115;-85
2021/06/27 01:19:41;;;;;;;11.55;9.65;;;20.20;93.00;;;;;;5092860;28;20024;-85
2021/06/27 01:22:09;;;;;;;12.57;9.20;;;20.20;93.00;;;;;;5094304;28;20094;-85
2021/06/27 01:24:34;;;;;;;11.90;9.67;;;20.20;93.10;;;;;;5092962;28;20059;-84
2021/06/27 01:27:00;;;;;;;11.18;9.50;;;20.10;93.10;;;;;;5092853;28;20304;-84
2021/06/27 01:29:26;;;;;;;11.93;9.50;;;20.10;93.20;;;;;;5094015;28;20024;-84
2021/06/27 01:31:51;;;;;;;11.45;9.38;;;20.10;93.30;;;;;;5092774;28;20031;-84
2021/06/27 01:34:17;;;;;;;12.80;10.00;;;20.10;93.30;;;;;;5092818;28;20058;-84
2021/06/27 01:36:44;;;;;;;12.95;10.00;;;20.10;93.30;;;;;;5092697;28;20101;-84
2021/06/27 01:39:10;;;;;;;13.30;10.70;;;20.00;93.30;;;;;;5092573;28;20020;-84
2021/06/27 01:41:35;;;;;;;15.05;10.18;;;20.00;93.40;;;;;;5092920;28;20073;-84
2021/06/27 01:44:01;;;;;;;11.80;9.52;;;20.00;93.40;;;;;;5093942;28;20023;-84
2021/06/27 01:46:27;;;;;;;12.80;10.27;;;20.00;93.40;;;;;;5093668;28;20473;-84
2021/06/27 01:48:52;;;;;;;13.48;10.55;;;20.00;93.60;;;;;;5093764;28;20432;-84
2021/06/27 01:51:18;;;;;;;13.45;10.30;;;20.00;93.60;;;;;;5093916;28;20040;-84
2021/06/27 01:53:44;;;;;;;14.07;10.40;;;19.90;93.70;;;;;;5092433;28;20031;-84
2021/06/27 01:56:10;;;;;;;12.43;10.30;;;19.90;93.80;;;;;;5092399;28;20417;-84
2021/06/27 01:58:40;;;;;;;13.98;10.48;;;19.90;93.80;;;;;;5092245;28;20032;-84
2021/06/27 02:01:38;;;;;;;12.60;10.15;;;19.90;93.90;;;;;;5093578;28;20399;-84
2021/06/27 02:04:05;;;;;;;14.55;9.70;;;19.80;93.90;;;;;;5093051;28;20040;-84
2021/06/27 02:06:36;;;;;;;12.80;10.15;;;19.90;94.00;;;;;;5092140;28;20032;-84
2021/06/27 02:09:06;;;;;;;14.52;10.70;;;19.80;94.00;;;;;;5092099;28;20024;-84
2021/06/27 02:11:31;;;;;;;13.15;10.23;;;19.80;94.00;;;;;;5092121;28;20024;-84
2021/06/27 02:13:57;;;;;;;12.82;10.43;;;19.80;94.00;;;;;;5093651;28;20027;-84
2021/06/27 02:16:25;;;;;;;13.75;10.82;;;19.70;94.00;;;;;;5093155;28;20051;-84
2021/06/27 02:18:51;;;;;;;13.10;9.93;;;19.70;94.10;;;;;;5091845;28;20031;-84
2021/06/27 02:21:43;;;;;;;13.38;9.82;;;19.70;94.10;;;;;;5091650;28;20036;-84
2021/06/27 02:24:09;;;;;;;13.35;10.02;;;19.70;94.20;;;;;;5089672;28;20075;-84
2021/06/27 02:26:35;;;;;;;13.48;10.05;;;19.60;94.20;;;;;;5092040;28;20373;-84
2021/06/27 02:29:03;;;;;;;11.98;9.75;;;19.60;94.20;;;;;;5093015;28;20453;-84
2021/06/27 02:31:33;;;;;;;16.33;10.50;;;19.60;94.30;;;;;;5091718;28;20492;-84
2021/06/27 02:34:00;;;;;;;14.40;10.60;;;19.60;94.30;;;;;;5092226;28;20062;-84
2021/06/27 02:36:26;;;;;;;13.93;10.55;;;19.60;94.30;;;;;;5090500;28;20028;-84
2021/06/27 02:38:52;;;;;;;11.77;9.50;;;19.60;94.40;;;;;;5091606;28;20396;-84
2021/06/27 02:41:19;;;;;;;13.30;10.13;;;19.60;94.40;;;;;;5092696;28;20028;-85
2021/06/27 02:43:45;;;;;;;12.63;10.50;;;19.60;94.40;;;;;;5091462;28;20030;-84
2021/06/27 02:46:11;;;;;;;11.82;9.95;;;19.60;94.40;;;;;;5091399;28;20107;-84
2021/06/27 02:48:37;;;;;;;12.95;10.25;;;19.50;94.50;;;;;;5092765;28;20028;-84
2021/06/27 02:51:04;;;;;;;12.60;10.05;;;19.50;94.50;;;;;;5091238;28;20092;-84
2021/06/27 02:53:30;;;;;;;12.82;9.98;;;19.50;94.60;;;;;;5091252;28;20028;-84
2021/06/27 02:56:07;;;;;;;13.10;9.77;;;19.50;94.70;;;;;;5092550;28;20039;-84
2021/06/27 02:58:46;;;;;;;12.70;10.63;;;19.50;94.60;;;;;;5091273;28;20686;-84
2021/06/27 03:01:13;;;;;;;12.82;10.25;;;19.50;94.70;;;;;;5090996;28;20055;-85
2021/06/27 03:03:41;;;;;;;13.40;10.05;;;19.40;94.70;;;;;;5092625;28;20103;-85
2021/06/27 03:06:07;;;;;;;14.25;10.30;;;19.40;94.80;;;;;;5091106;28;20385;-85
2021/06/27 03:08:37;;;;;;;12.93;10.20;;;19.40;94.90;;;;;;5092528;28;20431;-84
2021/06/27 03:11:03;;;;;;;12.23;9.80;;;19.40;94.90;;;;;;5091155;28;20024;-84
2021/06/27 03:13:28;;;;;;;12.48;9.95;;;19.40;94.90;;;;;;5092834;28;20024;-84
2021/06/27 03:15:54;;;;;;;12.57;10.15;;;19.40;94.90;;;;;;5092887;28;20077;-84
2021/06/27 03:18:20;;;;;;;11.45;9.48;;;19.30;95.00;;;;;;5092860;28;20024;-84
2021/06/27 03:20:46;;;;;;;14.20;9.82;;;19.30;95.00;;;;;;5091085;28;20028;-84
2021/06/27 03:23:12;;;;;;;11.88;10.05;;;19.30;95.10;;;;;;5091636;28;20554;-85
2021/06/27 03:25:39;;;;;;;13.48;10.07;;;19.30;95.10;;;;;;5091815;28;20024;-84
2021/06/27 03:28:05;;;;;;;13.48;10.48;;;19.30;95.20;;;;;;5093147;28;20020;-84
2021/06/27 03:30:31;;;;;;;12.55;9.63;;;19.30;95.20;;;;;;5092555;28;20024;-84
2021/06/27 03:32:57;;;;;;;12.70;9.30;;;19.30;95.10;;;;;;5091430;28;20106;-84
2021/06/27 03:35:23;;;;;;;12.45;9.77;;;19.30;95.00;;;;;;5094001;28;20452;-84
2021/06/27 03:37:55;;;;;;;14.07;10.52;;;19.30;95.10;;;;;;5097034;28;20055;-84
2021/06/27 03:40:21;;;;;;;12.15;10.13;;;19.30;95.20;;;;;;5095914;28;20020;-84
2021/06/27 03:42:48;;;;;;;14.10;9.85;;;19.20;95.10;;;;;;5096329;28;20026;-84
2021/06/27 03:45:14;;;;;;;12.32;10.05;;;19.20;95.50;;;;;;5095970;28;20477;-84
2021/06/27 03:47:41;;;;;;;12.23;9.43;;;19.20;95.30;;;;;;5095758;28;20027;-84
2021/06/27 03:50:08;;;;;;;13.82;10.05;;;19.20;95.40;;;;;;5097122;28;20024;-84
2021/06/27 03:52:33;;;;;;;13.20;10.15;;;19.20;95.40;;;;;;5095632;28;20028;-85
2021/06/27 03:54:59;;;;;;;13.43;9.63;;;19.20;95.40;;;;;;5095859;28;20027;-85
2021/06/27 03:57:25;;;;;;;13.27;9.60;;;19.20;95.40;;;;;;5096580;28;20354;-84
2021/06/27 03:59:50;;;;;;;13.13;10.32;;;19.20;95.30;;;;;;5095379;28;20020;-84
2021/06/27 04:02:16;;;;;;;13.00;9.45;;;19.20;95.30;;;;;;5095819;28;20024;-84
2021/06/27 04:04:41;;;;;;;16.67;10.75;;;19.30;95.60;;;;;;5096983;28;20023;-84
2021/06/27 04:07:07;;;;;;;13.10;10.18;;;19.20;95.30;;;;;;5096138;28;20468;-84
2021/06/27 04:09:33;;;;;;;13.10;9.85;;;19.30;95.30;;;;;;5098908;28;20035;-84
2021/06/27 04:11:58;;;;;;;10.98;9.23;;;19.30;95.40;;;;;;5099707;28;20094;-84
2021/06/27 04:14:24;;;;;;;12.85;9.90;;;19.20;95.50;;;;;;5099377;28;20405;-84
2021/06/27 04:16:50;;;;;;;12.38;9.90;;;19.30;95.50;;;;;;5099142;28;20031;-84
2021/06/27 04:19:15;;;;;;;11.77;9.82;;;19.30;95.50;;;;;;5096474;28;20437;-84
2021/06/27 04:21:41;;;;;;;12.60;10.02;;;19.30;95.60;;;;;;5095544;28;20510;-84
2021/06/27 04:24:07;;;;;;;12.60;9.60;;;19.30;95.60;;;;;;5095443;28;20024;-84
2021/06/27 04:26:33;;;;;;;15.43;10.45;;;19.30;95.60;;;;;;5094253;28;20072;-84
2021/06/27 04:28:59;;;;;;;11.75;8.90;;;19.40;95.50;;;;;;5093839;28;20024;-84
2021/06/27 04:31:25;;;;;;;13.32;9.20;;;19.40;95.40;;;;;;5094110;28;20028;-84
2021/06/27 04:33:51;;;;;;;11.68;9.73;;;19.40;95.30;;;;;;5094203;28;20024;-84
2021/06/27 04:36:17;;;;;;;11.95;9.30;;;19.50;95.20;;;;;;5095452;28;20493;-84
2021/06/27 04:38:43;;;;;;;11.18;9.13;;;19.60;94.90;;;;;;5094276;28;20025;-84
2021/06/27 04:41:09;;;;;;;10.35;9.00;;;19.50;95.10;;;;;;5093518;28;20016;-84
2021/06/27 04:43:34;;;;;;;13.13;9.77;;;19.60;94.80;;;;;;5095072;28;20020;-85
2021/06/27 04:46:01;;;;;;;12.93;9.20;;;19.60;94.70;;;;;;5094091;28;20016;-85
2021/06/27 04:48:26;;;;;;;10.80;9.30;;;19.60;94.70;;;;;;5094527;28;20020;-85
2021/06/27 04:50:52;;;;;;;12.50;9.40;;;19.60;94.70;;;;;;5092939;28;20106;-85
2021/06/27 04:53:18;;;;;;;11.35;9.13;;;19.60;95.20;;;;;;5094776;28;20353;-85
2021/06/27 04:55:44;;;;;;;11.70;8.93;;;19.60;95.00;;;;;;5093417;28;20032;-85
2021/06/27 04:58:10;;;;;;;11.20;8.93;;;19.60;95.00;;;;;;5093259;28;20115;-85
2021/06/27 05:00:37;;;;;;;10.63;8.82;;;19.60;94.90;;;;;;5093948;28;20024;-85
2021/06/27 05:03:02;;;;;;;11.05;8.43;;;19.60;94.90;;;;;;5093193;28;20020;-85
2021/06/27 05:05:28;;;;;;;10.15;8.35;;;19.70;95.10;;;;;;5093338;28;20150;-85
2021/06/27 05:07:54;;;;;;;11.88;9.25;;;19.70;95.10;;;;;;5094456;28;20344;-85
2021/06/27 05:10:19;;;;;;;13.85;10.10;;;19.60;95.10;;;;;;5093798;28;20028;-85
2021/06/27 05:12:45;;;;;;;11.20;9.43;;;19.70;94.90;;;;;;5093012;28;20026;-85
2021/06/27 05:15:11;;;;;;;12.13;8.82;;;19.70;95.00;;;;;;5094414;28;20030;-85
2021/06/27 05:17:37;;;;;;;12.45;9.50;;;19.70;95.10;;;;;;5092915;28;20031;-85
2021/06/27 05:20:04;;;;;;;10.55;8.40;;;19.70;95.10;;;;;;5092920;28;20455;-84
2021/06/27 05:22:30;;;;;;;11.18;8.95;;;19.70;95.10;;;;;;5092892;28;20028;-84
2021/06/27 05:24:55;;;;;;;11.38;9.10;;;19.80;95.00;;;;;;5093001;28;20032;-84
2021/06/27 05:27:21;;;;;;;12.35;9.60;;;19.80;94.90;;;;;;5094219;28;20144;-84
2021/06/27 05:29:46;;;;;;;11.05;8.60;;;19.80;94.80;;;;;;5092689;28;20024;-84
2021/06/27 05:32:12;;;;;;;12.75;9.80;;;19.80;94.70;;;;;;5094263;28;20035;-84
2021/06/27 05:34:38;;;;;;;10.18;8.88;;;19.80;94.70;;;;;;5092870;28;20085;-84
2021/06/27 05:37:04;;;;;;;11.02;8.88;;;19.90;94.80;;;;;;5094186;28;20059;-84
2021/06/27 05:39:29;;;;;;;10.77;9.52;;;19.90;94.80;;;;;;5094020;28;20035;-84
2021/06/27 05:41:55;;;;;;;11.07;9.30;;;19.90;94.80;;;;;;5092721;28;20020;-84
2021/06/27 05:44:21;;;;;;;10.88;8.77;;;19.90;94.80;;;;;;5094223;28;20326;-84
2021/06/27 05:46:47;;;;;;;9.57;8.57;;;20.00;94.80;;;;;;5093882;28;20385;-84
2021/06/27 05:49:13;;;;;;;10.43;8.77;;;20.00;94.70;;;;;;5093589;28;20031;-84
2021/06/27 05:51:40;;;;;;;10.20;8.90;;;20.00;94.60;;;;;;5094124;28;20037;-84
2021/06/27 05:54:07;;;;;;;12.18;8.93;;;20.00;94.50;;;;;;5092344;28;20024;-85
2021/06/27 05:56:33;;;;;;;10.18;8.82;;;20.10;94.60;;;;;;5092293;28;20423;-84
2021/06/27 05:59:00;;;;;;;10.40;8.52;;;20.10;94.50;;;;;;5093330;28;20028;-84
2021/06/27 06:01:26;;;;;;;9.25;8.10;;;20.20;94.70;;;;;;5092170;28;20047;-84
2021/06/27 06:03:51;;;;;;;9.95;8.45;;;20.10;94.30;;;;;;5092402;28;20115;-85
2021/06/27 06:06:17;;;;;;;10.27;8.35;;;20.10;94.20;;;;;;5093591;28;20043;-84
2021/06/27 06:08:43;;;;;;;10.63;8.27;;;20.20;94.20;;;;;;5092004;28;20455;-84
2021/06/27 06:11:13;;;;;;;9.10;7.80;;;20.20;94.30;;;;;;5091684;28;20066;-84
2021/06/27 06:13:39;;;;;;;11.80;8.52;;;20.20;94.20;;;;;;5091921;28;20507;-84
2021/06/27 06:16:06;;;;;;;9.77;8.23;;;20.30;94.20;;;;;;5091996;28;20031;-84
2021/06/27 06:18:32;;;;;;;9.50;7.97;;;20.30;94.10;;;;;;5091746;28;20035;-84
2021/06/27 06:20:58;;;;;;;8.85;7.93;;;20.40;94.00;;;;;;5091900;28;20039;-84
2021/06/27 06:23:24;;;;;;;8.82;7.80;;;20.40;94.00;;;;;;5091947;28;20266;-84
2021/06/27 06:25:50;;;;;;;9.23;7.88;;;20.40;93.90;;;;;;5093429;28;20027;-84
2021/06/27 06:28:15;;;;;;;8.90;7.72;;;20.40;93.90;;;;;;5092274;28;20477;-84
2021/06/27 06:30:41;;;;;;;10.07;8.35;;;20.50;93.90;;;;;;5092763;28;20031;-84
2021/06/27 06:33:12;;;;;;;9.13;7.80;;;20.50;93.90;;;;;;5092884;28;20441;-84
2021/06/27 06:35:40;;;;;;;9.05;7.70;;;20.50;93.80;;;;;;5093321;28;20484;-85
2021/06/27 06:38:06;;;;;;;9.30;7.50;;;20.60;93.80;;;;;;5091734;28;20028;-84
2021/06/27 06:40:32;;;;;;;8.80;7.70;;;20.60;94.00;;;;;;5091512;28;20031;-84
2021/06/27 06:42:58;;;;;;;8.40;7.38;;;20.60;93.60;;;;;;5091850;28;20031;-84
2021/06/27 06:45:27;;;;;;;8.65;7.32;;;20.60;93.60;;;;;;5091534;28;20031;-84
2021/06/27 06:47:54;;;;;;;8.00;7.00;;;20.70;93.60;;;;;;5091683;28;20081;-84
2021/06/27 06:50:20;;;;;;;8.05;7.10;;;20.70;93.60;;;;;;5091489;28;20123;-84
2021/06/27 06:52:45;;;;;;;7.85;7.05;;;20.70;93.50;;;;;;5091852;28;20067;-84
2021/06/27 06:55:11;;;;;;;8.45;7.40;;;20.80;93.50;;;;;;5091499;28;20031;-84
2021/06/27 06:57:37;;;;;;;7.68;6.65;;;20.80;93.50;;;;;;5091400;28;20508;-84
2021/06/27 07:00:05;;;;;;;7.13;6.43;;;20.80;93.50;;;;;;5090921;28;20020;-84
2021/06/27 07:02:30;;;;;;;8.87;7.30;;;20.90;93.40;;;;;;5091569;28;20073;-84
2021/06/27 07:04:56;;;;;;;7.25;6.30;;;20.90;93.30;;;;;;5091750;28;20024;-84
2021/06/27 07:07:22;;;;;;;7.22;6.18;;;20.90;93.30;;;;;;5093464;28;20020;-84
2021/06/27 07:09:47;;;;;;;7.55;6.22;;;21.00;93.30;;;;;;5090176;28;20024;-84
2021/06/27 07:12:13;;;;;;;9.45;7.70;;;21.00;93.50;;;;;;5090980;28;20032;-85
2021/06/27 07:14:39;;;;;;;8.07;7.07;;;21.00;93.10;;;;;;5092262;28;20028;-85
2021/06/27 07:17:04;;;;;;;7.43;6.63;;;21.00;93.00;;;;;;5090766;28;20024;-85
2021/06/27 07:19:30;;;;;;;8.45;6.65;;;21.00;92.80;;;;;;5089950;28;20111;-85
2021/06/27 07:21:56;;;;;;;10.85;8.57;;;21.10;92.90;;;;;;5091141;28;20020;-85
2021/06/27 07:24:22;;;;;;;9.40;8.00;;;21.10;92.90;;;;;;5092424;28;20028;-85
2021/06/27 07:26:48;;;;;;;8.85;7.60;;;21.10;92.80;;;;;;5092391;28;20016;-85
2021/06/27 07:29:14;;;;;;;9.27;7.82;;;21.10;92.80;;;;;;5090031;28;20024;-85
2021/06/27 07:31:40;;;;;;;8.13;7.15;;;21.20;92.80;;;;;;5091896;28;20466;-84
2021/06/27 07:34:05;;;;;;;10.05;7.00;;;21.20;92.80;;;;;;5092037;28;20495;-85
2021/06/27 07:36:31;;;;;;;8.73;7.13;;;21.20;92.80;;;;;;5092139;28;20028;-84
2021/06/27 07:38:56;;;;;;;8.23;7.32;;;21.20;92.80;;;;;;5091723;28;20046;-85
2021/06/27 07:41:22;;;;;;;8.38;7.50;;;21.30;92.90;;;;;;5090805;28;20136;-85
2021/06/27 07:43:50;;;;;;;7.85;6.95;;;21.30;92.90;;;;;;5091964;28;20070;-85
2021/06/27 07:46:16;;;;;;;9.83;8.40;;;21.40;92.90;;;;;;5090649;28;20103;-85
2021/06/27 07:48:42;;;;;;;8.90;7.80;;;21.40;92.90;;;;;;5090650;28;20373;-85
2021/06/27 07:51:07;;;;;;;9.98;8.25;;;21.50;92.90;;;;;;5090040;28;20028;-85
2021/06/27 07:53:33;;;;;;;8.80;7.07;;;21.50;93.10;;;;;;5090604;28;20024;-85
2021/06/27 07:55:58;;;;;;;8.98;7.32;;;21.50;92.90;;;;;;5090708;28;20032;-85
2021/06/27 07:58:24;;;;;;;8.60;7.22;;;21.50;93.00;;;;;;5091896;28;20059;-85
2021/06/27 08:00:50;;;;;;;9.02;7.60;;;21.60;93.00;;;;;;5090523;28;20140;-85
2021/06/27 08:03:15;;;;;;;9.68;7.70;;;21.60;92.70;;;;;;5091175;28;20024;-84
2021/06/27 08:05:41;;;;;;;9.52;8.00;;;21.70;92.50;;;;;;5091843;28;20023;-85
2021/06/27 08:08:06;;;;;;;8.27;7.38;;;21.70;92.30;;;;;;5090352;28;20032;-85
2021/06/27 08:10:32;;;;;;;8.35;7.18;;;21.80;92.40;;;;;;5091352;28;20389;-84
2021/06/27 08:12:58;;;;;;;8.32;7.53;;;21.80;92.30;;;;;;5091814;28;20035;-85
2021/06/27 08:15:24;;;;;;;8.52;7.15;;;21.70;92.30;;;;;;5090444;28;20032;-85
2021/06/27 08:17:51;;;;;;;7.97;7.18;;;21.80;92.80;;;;;;5090248;28;20153;-85
2021/06/27 08:20:19;;;;;;;8.52;7.53;;;21.80;92.70;;;;;;5089642;28;20469;-85
2021/06/27 08:22:46;;;;;;;7.35;6.55;;;21.80;92.70;;;;;;5095255;28;20081;-85
2021/06/27 08:25:12;;;;;;;7.95;6.82;;;21.80;92.40;;;;;;5094135;28;20028;-85
2021/06/27 08:27:38;;;;;;;7.60;6.80;;;21.80;92.80;;;;;;5095251;28;20101;-85
2021/06/27 08:30:09;;;;;;;7.57;6.63;;;21.80;92.60;;;;;;5094387;28;20031;-85
2021/06/27 08:32:43;;;;;;;9.32;6.97;;;21.80;92.70;;;;;;5094812;28;20024;-84
2021/06/27 08:35:19;;;;;;;8.32;7.43;;;21.80;92.60;;;;;;5095190;28;20095;-84
2021/06/27 08:37:46;;;;;;;8.75;7.38;;;21.90;92.60;;;;;;5093747;28;20544;-85
2021/06/27 08:40:14;;;;;;;9.07;7.43;;;21.90;92.40;;;;;;5093488;28;20108;-84
2021/06/27 08:42:40;;;;;;;11.20;8.57;;;21.90;92.50;;;;;;5093644;28;20107;-84
2021/06/27 08:45:08;;;;;;;8.57;7.55;;;22.00;92.80;;;;;;5094870;28;20101;-84
2021/06/27 08:47:36;;;;;;;9.38;7.80;;;22.10;92.30;;;;;;5095091;28;20105;-84
2021/06/27 08:50:04;;;;;;;8.65;7.50;;;22.20;92.30;;;;;;5094337;28;20024;-84
2021/06/27 08:52:31;;;;;;;8.30;7.28;;;22.20;92.10;;;;;;5093483;28;20024;-84
2021/06/27 08:54:57;;;;;;;8.70;7.45;;;22.20;92.50;;;;;;5094748;28;20024;-84
2021/06/27 08:57:23;;;;;;;9.25;7.30;;;22.20;92.20;;;;;;5094614;28;20020;-84
2021/06/27 08:59:49;;;;;;;8.73;7.65;;;22.20;92.40;;;;;;5094198;28;20032;-84
2021/06/27 09:02:15;;;;;;;7.57;6.75;;;22.20;91.60;;;;;;5093715;28;20492;-84
2021/06/27 09:04:43;;;;;;;9.55;7.95;;;22.20;91.70;;;;;;5093399;28;20495;-84
2021/06/27 09:07:28;;;;;;;9.15;8.00;;;22.30;91.90;;;;;;5094546;28;20028;-84
2021/06/27 09:09:55;;;;;;;8.55;7.68;;;22.30;91.90;;;;;;5093988;28;20027;-84
2021/06/27 09:12:20;;;;;;;8.27;7.40;;;22.40;92.30;;;;;;5094414;28;20028;-84
2021/06/27 09:14:48;;;;;;;9.80;7.78;;;22.40;92.90;;;;;;5093245;28;20381;-86
2021/06/27 09:17:19;;;;;;;7.93;7.05;;;22.40;91.50;;;;;;5094372;28;20024;-84
2021/06/27 09:20:04;;;;;;;8.88;7.95;;;22.40;91.60;;;;;;5092319;28;20115;-84
2021/06/27 09:22:31;;;;;;;8.30;7.43;;;22.60;91.50;;;;;;5092997;28;20024;-84
2021/06/27 09:25:14;;;;;;;10.63;7.93;;;22.60;91.70;;;;;;5093339;28;20016;-84
2021/06/27 09:27:40;;;;;;;8.88;7.90;;;22.60;91.20;;;;;;5092921;28;20055;-84
2021/06/27 09:30:20;;;;;;;9.93;8.70;;;22.70;91.10;;;;;;5093641;28;20024;-84
2021/06/27 09:32:51;;;;;;;8.07;7.28;;;22.70;91.40;;;;;;5092201;28;20119;-84
2021/06/27 09:35:39;;;;;;;8.95;7.82;;;22.80;91.30;;;;;;5092701;28;20561;-84
2021/06/27 09:38:17;;;;;;;;;;;22.80;91.00;;;;;;5094392;28;20477;-84
2021/06/27 09:40:43;;;;;;;8.63;7.63;;;22.90;90.90;;;;;;5092109;28;19911;-84
2021/06/27 09:43:09;;;;;;;9.15;7.80;;;22.90;90.90;;;;;;5093952;28;20468;-84
2021/06/27 09:45:56;;;;;;;8.70;7.75;;;22.90;91.20;;;;;;5092552;28;20440;-84
2021/06/27 09:48:23;;;;;;;8.50;7.60;;;22.80;91.90;;;;;;5093927;28;20031;-84
2021/06/27 09:50:49;;;;;;;8.18;7.18;;;22.80;91.10;;;;;;5092165;28;20028;-84
2021/06/27 09:53:36;;;;;;;8.13;7.07;;;22.80;90.90;;;;;;5092402;28;20020;-84
2021/06/27 09:56:05;;;;;;;8.40;7.30;;;22.80;90.30;;;;;;5093745;28;20031;-85
2021/06/27 09:58:30;;;;;;;8.25;6.78;;;22.90;91.10;;;;;;5092360;28;20377;-85
2021/06/27 10:00:57;;;;;;;7.65;6.75;;;22.90;90.80;;;;;;5093068;28;20142;-85
2021/06/27 10:03:26;;;;;;;7.80;7.00;;;22.90;91.30;;;;;;5093939;28;20020;-85
2021/06/27 10:06:02;;;;;;;7.72;6.93;;;22.90;90.60;;;;;;5093811;28;20519;-85
2021/06/27 10:08:30;;;;;;;9.57;7.28;;;22.90;90.50;;;;;;5092558;28;20032;-85
2021/06/27 10:11:17;;;;;;;7.22;6.40;;;23.00;90.00;;;;;;5092543;28;20027;-85
2021/06/27 10:13:46;;;;;;;7.50;6.43;;;23.10;88.80;;;;;;5092081;28;20028;-85
2021/06/27 10:16:21;;;;;;;6.30;5.70;;;23.20;89.10;;;;;;5093149;28;20024;-85
2021/06/27 10:18:47;;;;;;;6.60;5.93;;;23.30;85.40;;;;;;5091725;28;20024;-85
2021/06/27 10:21:13;;;;;;;6.10;5.40;;;23.40;83.70;;;;;;5091403;28;20109;-85
2021/06/27 10:23:39;;;;;;;6.80;6.10;;;23.40;84.20;;;;;;5091890;28;20078;-85
2021/06/27 10:26:05;;;;;;;8.07;6.40;;;23.50;85.80;;;;;;5093241;28;20057;-85
2021/06/27 10:28:33;;;;;;;6.90;5.75;;;23.50;83.60;;;;;;5093240;28;20030;-85
2021/06/27 10:31:00;;;;;;;6.85;5.40;;;23.50;83.80;;;;;;5091321;28;20060;-86
2021/06/27 10:33:26;;;;;;;6.13;5.47;;;23.50;83.30;;;;;;5091665;28;20403;-85
2021/06/27 10:35:52;;;;;;;8.40;6.15;;;23.40;83.50;;;;;;5092048;28;20020;-85
2021/06/27 10:38:23;;;;;;;6.53;5.68;;;23.40;83.90;;;;;;5091414;28;20397;-85
2021/06/27 10:40:53;;;;;;;6.57;5.90;;;23.40;84.50;;;;;;5091035;28;20020;-85
2021/06/27 10:43:20;;;;;;;6.15;5.55;;;23.30;85.70;;;;;;5091377;28;20343;-85
2021/06/27 10:45:49;;;;;;;6.93;5.88;;;23.20;86.60;;;;;;5090467;28;20365;-85
2021/06/27 10:48:32;;;;;;;6.57;5.88;;;23.20;85.90;;;;;;5092755;28;20027;-85
2021/06/27 10:51:06;;;;;;;7.38;5.88;;;23.20;88.20;;;;;;5091954;28;20033;-85
2021/06/27 10:54:09;;;;;;;6.53;5.43;;;23.20;86.00;;;;;;5091365;28;20031;-85
2021/06/27 10:56:50;;;;;;;6.30;5.70;;;23.20;85.20;;;;;;5092425;28;20420;-85
2021/06/27 10:59:38;;;;;;;7.30;6.22;;;23.30;87.20;;;;;;5091871;28;20488;-85
2021/06/27 11:02:14;;;;;;;6.57;5.77;;;23.30;86.10;;;;;;5091123;28;20544;-85
2021/06/27 11:04:40;;;;;;;6.13;5.53;;;23.40;86.00;;;;;;5091201;28;20024;-85
2021/06/27 11:07:06;;;;;;;6.65;5.95;;;23.30;85.90;;;;;;5091149;28;20478;-85
2021/06/27 11:09:31;;;;;;;6.85;6.15;;;23.40;85.30;;;;;;5090360;28;20034;-85
2021/06/27 11:11:58;;;;;;;7.60;6.00;;;23.40;85.90;;;;;;5091307;28;20385;-85
2021/06/27 11:14:25;;;;;;;6.65;5.82;;;23.40;86.70;;;;;;5091204;28;20031;-85
2021/06/27 11:17:05;;;;;;;6.53;5.82;;;23.30;87.40;;;;;;5090860;28;20028;-85
2021/06/27 11:19:41;;;;;;;7.50;6.68;;;23.20;88.40;;;;;;5091018;28;20032;-84
2021/06/27 11:22:28;;;;;;;7.45;6.60;;;23.30;86.10;;;;;;5092342;28;20488;-84
2021/06/27 11:24:56;;;;;;;7.50;6.50;;;23.30;86.60;;;;;;5092111;28;20036;-84
2021/06/27 11:27:39;;;;;;;6.78;6.07;;;23.40;84.50;;;;;;5091186;28;20111;-84
2021/06/27 11:30:29;;;;;;;7.00;6.30;;;23.50;85.90;;;;;;5091618;28;20027;-84
2021/06/27 11:32:56;;;;;;;7.28;6.38;;;23.50;85.00;;;;;;5092318;28;20051;-84
2021/06/27 11:35:39;;;;;;;6.55;5.95;;;23.50;86.90;;;;;;5090929;28;20450;-84
2021/06/27 11:38:05;;;;;;;6.53;5.43;;;23.50;85.10;;;;;;5091098;28;20073;-84
2021/06/27 11:40:51;;;;;;;6.43;5.60;;;23.60;84.20;;;;;;5090423;28;20547;-85
2021/06/27 11:43:17;;;;;;;6.32;5.63;;;23.70;84.00;;;;;;5092046;28;20032;-84
2021/06/27 11:45:45;;;;;;;6.05;5.45;;;23.80;82.70;;;;;;5090948;28;20025;-84
2021/06/27 11:48:11;;;;;;;6.47;5.30;;;23.80;83.00;;;;;;5090667;28;20365;-84
2021/06/27 11:50:39;;;;;;;6.13;5.13;;;23.90;81.20;;;;;;5091661;28;20054;-84
2021/06/27 11:53:13;;;;;;;6.20;5.40;;;24.00;79.80;;;;;;5090685;28;20031;-84
2021/06/27 11:55:48;;;;;;;7.25;5.95;;;24.10;80.70;;;;;;5091528;28;20082;-84
2021/06/27 11:58:24;;;;;;;7.63;6.20;;;24.10;81.10;;;;;;5096025;28;20028;-84
2021/06/27 12:00:51;;;;;;;6.75;5.80;;;24.10;82.60;;;;;;5095477;28;20017;-84
2021/06/27 12:03:19;;;;;;;7.18;6.07;;;24.10;82.00;;;;;;5094457;28;20020;-84
2021/06/27 12:05:57;;;;;;;6.38;5.78;;;24.10;81.80;;;;;;5096247;28;20077;-84
2021/06/27 12:08:23;;;;;;;6.60;5.50;;;24.10;81.00;;;;;;5095995;28;20028;-84
2021/06/27 12:10:52;;;;;;;6.15;5.50;;;24.20;81.10;;;;;;5093870;28;20024;-84
2021/06/27 12:13:18;;;;;;;6.65;5.90;;;24.20;79.50;;;;;;5094473;28;20067;-84
2021/06/27 12:15:47;;;;;;;6.85;5.63;;;24.20;79.80;;;;;;5077287;28;20035;-85
2021/06/27 12:18:21;;;;;;;6.57;5.40;;;24.20;79.80;;;;;;5094098;28;20035;-85
2021/06/27 12:20:57;;;;;;;6.70;5.95;;;24.20;79.90;;;;;;5094695;28;20032;-85
2021/06/27 12:23:32;;;;;;;8.38;6.15;;;24.20;79.00;;;;;;5094068;28;20052;-85
2021/06/27 12:26:02;;;;;;;7.20;5.72;;;24.30;79.70;;;;;;5095202;28;20028;-85
2021/06/27 12:28:40;;;;;;;6.03;5.20;;;24.40;79.80;;;;;;5095600;28;20389;-85
2021/06/27 12:31:08;;;;;;;6.43;5.65;;;24.60;79.90;;;;;;5093315;28;20031;-85
2021/06/27 12:33:37;;;;;;;7.13;6.22;;;24.80;79.60;;;;;;5095170;28;20028;-85
2021/06/27 12:36:09;;;;;;;7.50;5.97;;;24.90;79.00;;;;;;5093678;28;20024;-85
2021/06/27 12:38:35;;;;;;;6.50;5.85;;;25.10;77.10;;;;;;5093845;28;20028;-85
2021/06/27 12:41:04;;;;;;;6.43;5.53;;;25.10;77.60;;;;;;5093061;28;20020;-85
2021/06/27 12:43:29;;;;;;;7.05;5.50;;;25.00;77.30;;;;;;5093670;28;20457;-85
2021/06/27 12:46:23;;;;;;;6.45;5.82;;;25.10;76.70;;;;;;5093511;28;20111;-85